sensor_id;sensor_type;location;lat;lon;timestamp;P1;durP1;ratioP1;P2;durP2;ratioP2
52764;SDS011;38650;44.536;18.664;2022-10-16T00:01:14;12.90;;;10.75;;
52764;SDS011;38650;44.536;18.664;2022-10-16T00:03:41;15.38;;;12.20;;
52764;SDS011;38650;44.536;18.664;2022-10-16T00:06:08;12.60;;;10.73;;
52764;SDS011;38650;44.536;18.664;2022-10-16T00:08:35;11.93;;;10.45;;
52764;SDS011;38650;44.536;18.664;2022-10-16T00:11:06;15.45;;;12.23;;
52764;SDS011;38650;44.536;18.664;2022-10-16T00:13:37;15.65;;;12.15;;
52764;SDS011;38650;44.536;18.664;2022-10-16T00:16:04;13.95;;;12.00;;
52764;SDS011;38650;44.536;18.664;2022-10-16T00:18:32;12.35;;;10.05;;
52764;SDS011;38650;44.536;18.664;2022-10-16T00:21:09;12.57;;;10.48;;
52764;SDS011;38650;44.536;18.664;2022-10-16T00:23:37;10.07;;;9.07;;
52764;SDS011;38650;44.536;18.664;2022-10-16T00:26:11;9.98;;;8.68;;
52764;SDS011;38650;44.536;18.664;2022-10-16T00:28:39;11.52;;;9.93;;
52764;SDS011;38650;44.536;18.664;2022-10-16T00:31:10;12.85;;;11.50;;
52764;SDS011;38650;44.536;18.664;2022-10-16T00:33:36;12.10;;;9.90;;
52764;SDS011;38650;44.536;18.664;2022-10-16T00:36:03;13.02;;;11.18;;
52764;SDS011;38650;44.536;18.664;2022-10-16T00:38:30;11.10;;;9.40;;
52764;SDS011;38650;44.536;18.664;2022-10-16T00:40:56;12.75;;;10.63;;
52764;SDS011;38650;44.536;18.664;2022-10-16T00:48:46;10.32;;;8.13;;
52764;SDS011;38650;44.536;18.664;2022-10-16T00:51:23;12.05;;;8.45;;
52764;SDS011;38650;44.536;18.664;2022-10-16T00:53:52;10.10;;;8.90;;
52764;SDS011;38650;44.536;18.664;2022-10-16T00:56:18;11.30;;;9.20;;
52764;SDS011;38650;44.536;18.664;2022-10-16T00:58:43;8.80;;;7.90;;
52764;SDS011;38650;44.536;18.664;2022-10-16T01:01:09;9.80;;;8.23;;
52764;SDS011;38650;44.536;18.664;2022-10-16T01:03:36;9.00;;;7.60;;
52764;SDS011;38650;44.536;18.664;2022-10-16T01:06:19;13.63;;;10.63;;
52764;SDS011;38650;44.536;18.664;2022-10-16T01:09:17;13.90;;;11.82;;
52764;SDS011;38650;44.536;18.664;2022-10-16T01:12:15;12.63;;;10.27;;
52764;SDS011;38650;44.536;18.664;2022-10-16T01:14:50;10.05;;;8.82;;
52764;SDS011;38650;44.536;18.664;2022-10-16T01:22:33;7.90;;;7.10;;
52764;SDS011;38650;44.536;18.664;2022-10-16T01:25:25;8.13;;;7.20;;
52764;SDS011;38650;44.536;18.664;2022-10-16T01:28:02;7.43;;;6.20;;
52764;SDS011;38650;44.536;18.664;2022-10-16T01:30:34;6.95;;;5.57;;
52764;SDS011;38650;44.536;18.664;2022-10-16T01:33:07;6.10;;;5.50;;
52764;SDS011;38650;44.536;18.664;2022-10-16T01:35:43;9.40;;;7.20;;
52764;SDS011;38650;44.536;18.664;2022-10-16T01:38:16;7.78;;;6.60;;
52764;SDS011;38650;44.536;18.664;2022-10-16T01:40:47;6.63;;;5.50;;
52764;SDS011;38650;44.536;18.664;2022-10-16T01:43:24;7.20;;;6.15;;
52764;SDS011;38650;44.536;18.664;2022-10-16T01:45:55;6.93;;;5.50;;
52764;SDS011;38650;44.536;18.664;2022-10-16T01:48:21;5.35;;;4.80;;
52764;SDS011;38650;44.536;18.664;2022-10-16T01:50:54;7.35;;;5.28;;
52764;SDS011;38650;44.536;18.664;2022-10-16T01:53:23;7.35;;;5.45;;
52764;SDS011;38650;44.536;18.664;2022-10-16T01:55:50;6.93;;;5.28;;
52764;SDS011;38650;44.536;18.664;2022-10-16T01:58:19;8.82;;;6.32;;
52764;SDS011;38650;44.536;18.664;2022-10-16T02:00:46;5.97;;;5.18;;
52764;SDS011;38650;44.536;18.664;2022-10-16T02:03:13;7.13;;;5.80;;
52764;SDS011;38650;44.536;18.664;2022-10-16T02:05:45;21.48;;;13.68;;
52764;SDS011;38650;44.536;18.664;2022-10-16T02:08:29;13.25;;;9.52;;
52764;SDS011;38650;44.536;18.664;2022-10-16T02:10:56;12.50;;;9.07;;
52764;SDS011;38650;44.536;18.664;2022-10-16T02:13:24;11.23;;;8.32;;
52764;SDS011;38650;44.536;18.664;2022-10-16T02:15:54;9.10;;;7.25;;
52764;SDS011;38650;44.536;18.664;2022-10-16T02:18:20;9.18;;;7.20;;
52764;SDS011;38650;44.536;18.664;2022-10-16T02:23:24;8.50;;;7.13;;
52764;SDS011;38650;44.536;18.664;2022-10-16T02:26:13;8.30;;;6.20;;
52764;SDS011;38650;44.536;18.664;2022-10-16T02:28:45;7.78;;;6.03;;
52764;SDS011;38650;44.536;18.664;2022-10-16T02:31:16;9.02;;;7.07;;
52764;SDS011;38650;44.536;18.664;2022-10-16T02:33:47;8.13;;;6.50;;
52764;SDS011;38650;44.536;18.664;2022-10-16T02:36:16;7.50;;;6.22;;
52764;SDS011;38650;44.536;18.664;2022-10-16T02:38:41;7.93;;;5.93;;
52764;SDS011;38650;44.536;18.664;2022-10-16T02:41:07;8.45;;;6.30;;
52764;SDS011;38650;44.536;18.664;2022-10-16T02:43:33;8.40;;;6.53;;
52764;SDS011;38650;44.536;18.664;2022-10-16T02:45:59;7.53;;;5.72;;
52764;SDS011;38650;44.536;18.664;2022-10-16T02:48:25;7.18;;;6.10;;
52764;SDS011;38650;44.536;18.664;2022-10-16T02:50:51;8.00;;;6.07;;
52764;SDS011;38650;44.536;18.664;2022-10-16T02:53:16;7.20;;;5.30;;
52764;SDS011;38650;44.536;18.664;2022-10-16T02:55:42;7.40;;;6.00;;
52764;SDS011;38650;44.536;18.664;2022-10-16T02:58:07;8.00;;;6.07;;
52764;SDS011;38650;44.536;18.664;2022-10-16T03:00:33;6.88;;;5.63;;
52764;SDS011;38650;44.536;18.664;2022-10-16T03:02:59;7.22;;;5.80;;
52764;SDS011;38650;44.536;18.664;2022-10-16T03:05:24;5.28;;;4.78;;
52764;SDS011;38650;44.536;18.664;2022-10-16T03:07:50;8.23;;;5.53;;
52764;SDS011;38650;44.536;18.664;2022-10-16T03:10:17;7.75;;;5.57;;
52764;SDS011;38650;44.536;18.664;2022-10-16T03:12:43;7.35;;;5.88;;
52764;SDS011;38650;44.536;18.664;2022-10-16T03:15:08;7.07;;;5.95;;
52764;SDS011;38650;44.536;18.664;2022-10-16T03:17:34;4.80;;;4.20;;
52764;SDS011;38650;44.536;18.664;2022-10-16T03:20:00;5.88;;;5.13;;
52764;SDS011;38650;44.536;18.664;2022-10-16T03:22:26;5.97;;;5.13;;
52764;SDS011;38650;44.536;18.664;2022-10-16T03:24:52;6.03;;;4.82;;
52764;SDS011;38650;44.536;18.664;2022-10-16T03:27:18;6.05;;;5.20;;
52764;SDS011;38650;44.536;18.664;2022-10-16T03:29:43;5.93;;;4.60;;
52764;SDS011;38650;44.536;18.664;2022-10-16T03:32:09;8.63;;;5.43;;
52764;SDS011;38650;44.536;18.664;2022-10-16T03:34:34;5.65;;;4.97;;
52764;SDS011;38650;44.536;18.664;2022-10-16T03:37:00;5.20;;;4.50;;
52764;SDS011;38650;44.536;18.664;2022-10-16T03:39:26;11.77;;;8.52;;
52764;SDS011;38650;44.536;18.664;2022-10-16T03:41:52;21.48;;;14.60;;
52764;SDS011;38650;44.536;18.664;2022-10-16T03:44:17;16.50;;;11.02;;
52764;SDS011;38650;44.536;18.664;2022-10-16T03:46:43;14.35;;;9.63;;
52764;SDS011;38650;44.536;18.664;2022-10-16T03:49:09;8.80;;;7.45;;
52764;SDS011;38650;44.536;18.664;2022-10-16T03:51:34;11.85;;;8.75;;
52764;SDS011;38650;44.536;18.664;2022-10-16T03:54:00;12.10;;;8.82;;
52764;SDS011;38650;44.536;18.664;2022-10-16T03:56:26;12.57;;;8.93;;
52764;SDS011;38650;44.536;18.664;2022-10-16T03:58:51;11.77;;;8.20;;
52764;SDS011;38650;44.536;18.664;2022-10-16T04:01:17;10.43;;;7.50;;
52764;SDS011;38650;44.536;18.664;2022-10-16T04:03:43;10.45;;;7.50;;
52764;SDS011;38650;44.536;18.664;2022-10-16T04:06:08;9.88;;;6.85;;
52764;SDS011;38650;44.536;18.664;2022-10-16T04:08:34;9.32;;;6.65;;
52764;SDS011;38650;44.536;18.664;2022-10-16T04:11:01;11.25;;;7.80;;
52764;SDS011;38650;44.536;18.664;2022-10-16T04:13:27;8.38;;;6.40;;
52764;SDS011;38650;44.536;18.664;2022-10-16T04:15:53;7.03;;;5.70;;
52764;SDS011;38650;44.536;18.664;2022-10-16T04:18:18;8.98;;;6.18;;
52764;SDS011;38650;44.536;18.664;2022-10-16T04:20:44;9.35;;;6.07;;
52764;SDS011;38650;44.536;18.664;2022-10-16T04:23:09;9.25;;;6.45;;
52764;SDS011;38650;44.536;18.664;2022-10-16T04:25:35;8.18;;;5.60;;
52764;SDS011;38650;44.536;18.664;2022-10-16T04:28:01;8.85;;;6.10;;
52764;SDS011;38650;44.536;18.664;2022-10-16T04:30:27;9.60;;;6.82;;
52764;SDS011;38650;44.536;18.664;2022-10-16T04:32:52;8.15;;;5.53;;
52764;SDS011;38650;44.536;18.664;2022-10-16T04:35:19;7.28;;;5.65;;
52764;SDS011;38650;44.536;18.664;2022-10-16T04:37:45;7.20;;;5.30;;
52764;SDS011;38650;44.536;18.664;2022-10-16T04:40:11;6.28;;;5.07;;
52764;SDS011;38650;44.536;18.664;2022-10-16T04:42:37;7.30;;;5.53;;
52764;SDS011;38650;44.536;18.664;2022-10-16T04:45:03;8.57;;;6.57;;
52764;SDS011;38650;44.536;18.664;2022-10-16T04:47:30;10.05;;;6.60;;
52764;SDS011;38650;44.536;18.664;2022-10-16T04:49:56;8.75;;;6.60;;
52764;SDS011;38650;44.536;18.664;2022-10-16T04:52:22;8.57;;;6.30;;
52764;SDS011;38650;44.536;18.664;2022-10-16T04:54:49;6.93;;;5.97;;
52764;SDS011;38650;44.536;18.664;2022-10-16T04:57:15;6.63;;;5.55;;
52764;SDS011;38650;44.536;18.664;2022-10-16T04:59:41;5.25;;;4.75;;
52764;SDS011;38650;44.536;18.664;2022-10-16T05:02:07;6.65;;;5.18;;
52764;SDS011;38650;44.536;18.664;2022-10-16T05:04:33;7.57;;;5.13;;
52764;SDS011;38650;44.536;18.664;2022-10-16T05:06:58;8.35;;;4.50;;
52764;SDS011;38650;44.536;18.664;2022-10-16T05:09:24;5.30;;;4.80;;
52764;SDS011;38650;44.536;18.664;2022-10-16T05:11:50;4.90;;;4.38;;
52764;SDS011;38650;44.536;18.664;2022-10-16T05:14:15;7.70;;;5.95;;
52764;SDS011;38650;44.536;18.664;2022-10-16T05:16:41;5.50;;;4.80;;
52764;SDS011;38650;44.536;18.664;2022-10-16T05:19:07;5.07;;;4.57;;
52764;SDS011;38650;44.536;18.664;2022-10-16T05:21:32;5.63;;;4.40;;
52764;SDS011;38650;44.536;18.664;2022-10-16T05:23:58;5.68;;;4.80;;
52764;SDS011;38650;44.536;18.664;2022-10-16T05:26:23;5.97;;;5.18;;
52764;SDS011;38650;44.536;18.664;2022-10-16T05:28:49;7.95;;;5.70;;
52764;SDS011;38650;44.536;18.664;2022-10-16T05:31:15;7.25;;;6.38;;
52764;SDS011;38650;44.536;18.664;2022-10-16T05:33:41;22.55;;;15.43;;
52764;SDS011;38650;44.536;18.664;2022-10-16T05:36:07;14.23;;;12.55;;
52764;SDS011;38650;44.536;18.664;2022-10-16T05:38:35;10.45;;;9.35;;
52764;SDS011;38650;44.536;18.664;2022-10-16T05:41:02;12.90;;;10.45;;
52764;SDS011;38650;44.536;18.664;2022-10-16T05:43:29;21.88;;;16.88;;
52764;SDS011;38650;44.536;18.664;2022-10-16T05:45:57;14.23;;;12.13;;
52764;SDS011;38650;44.536;18.664;2022-10-16T05:48:24;11.75;;;10.55;;
52764;SDS011;38650;44.536;18.664;2022-10-16T05:50:57;14.38;;;10.32;;
52764;SDS011;38650;44.536;18.664;2022-10-16T05:53:23;11.57;;;9.50;;
52764;SDS011;38650;44.536;18.664;2022-10-16T05:55:56;14.23;;;11.27;;
52764;SDS011;38650;44.536;18.664;2022-10-16T05:58:22;17.02;;;14.95;;
52764;SDS011;38650;44.536;18.664;2022-10-16T06:00:55;13.40;;;12.00;;
52764;SDS011;38650;44.536;18.664;2022-10-16T06:03:22;11.30;;;10.20;;
52764;SDS011;38650;44.536;18.664;2022-10-16T06:05:48;13.40;;;11.45;;
52764;SDS011;38650;44.536;18.664;2022-10-16T06:08:14;13.25;;;11.25;;
52764;SDS011;38650;44.536;18.664;2022-10-16T06:10:40;12.75;;;10.85;;
52764;SDS011;38650;44.536;18.664;2022-10-16T06:13:06;11.80;;;10.10;;
52764;SDS011;38650;44.536;18.664;2022-10-16T06:15:32;13.93;;;12.38;;
52764;SDS011;38650;44.536;18.664;2022-10-16T06:17:57;15.40;;;13.10;;
52764;SDS011;38650;44.536;18.664;2022-10-16T06:20:23;15.40;;;13.27;;
52764;SDS011;38650;44.536;18.664;2022-10-16T06:22:49;13.88;;;12.38;;
52764;SDS011;38650;44.536;18.664;2022-10-16T06:25:14;14.90;;;12.93;;
52764;SDS011;38650;44.536;18.664;2022-10-16T06:27:40;17.10;;;13.70;;
52764;SDS011;38650;44.536;18.664;2022-10-16T06:30:06;15.85;;;13.73;;
52764;SDS011;38650;44.536;18.664;2022-10-16T06:32:32;14.52;;;12.57;;
52764;SDS011;38650;44.536;18.664;2022-10-16T06:34:58;14.27;;;12.25;;
52764;SDS011;38650;44.536;18.664;2022-10-16T06:37:24;15.88;;;13.68;;
52764;SDS011;38650;44.536;18.664;2022-10-16T06:39:50;22.70;;;17.42;;
52764;SDS011;38650;44.536;18.664;2022-10-16T06:42:18;15.60;;;13.90;;
52764;SDS011;38650;44.536;18.664;2022-10-16T06:44:44;15.95;;;12.90;;
52764;SDS011;38650;44.536;18.664;2022-10-16T06:47:10;12.30;;;11.10;;
52764;SDS011;38650;44.536;18.664;2022-10-16T06:49:36;12.43;;;11.18;;
52764;SDS011;38650;44.536;18.664;2022-10-16T06:52:02;14.30;;;11.52;;
52764;SDS011;38650;44.536;18.664;2022-10-16T06:54:28;11.55;;;10.40;;
52764;SDS011;38650;44.536;18.664;2022-10-16T06:56:54;12.63;;;10.55;;
52764;SDS011;38650;44.536;18.664;2022-10-16T06:59:20;10.38;;;9.38;;
52764;SDS011;38650;44.536;18.664;2022-10-16T07:01:46;9.85;;;8.95;;
52764;SDS011;38650;44.536;18.664;2022-10-16T07:04:12;11.60;;;10.45;;
52764;SDS011;38650;44.536;18.664;2022-10-16T07:06:38;11.68;;;10.57;;
52764;SDS011;38650;44.536;18.664;2022-10-16T07:09:04;13.65;;;12.35;;
52764;SDS011;38650;44.536;18.664;2022-10-16T07:11:32;15.10;;;13.70;;
52764;SDS011;38650;44.536;18.664;2022-10-16T07:13:58;21.85;;;19.67;;
52764;SDS011;38650;44.536;18.664;2022-10-16T07:16:25;21.13;;;18.92;;
52764;SDS011;38650;44.536;18.664;2022-10-16T07:18:53;18.13;;;16.48;;
52764;SDS011;38650;44.536;18.664;2022-10-16T07:21:23;15.52;;;14.02;;
52764;SDS011;38650;44.536;18.664;2022-10-16T07:23:54;14.15;;;12.85;;
52764;SDS011;38650;44.536;18.664;2022-10-16T07:26:22;17.15;;;15.45;;
52764;SDS011;38650;44.536;18.664;2022-10-16T07:28:48;29.60;;;26.70;;
52764;SDS011;38650;44.536;18.664;2022-10-16T07:31:15;22.83;;;20.67;;
52764;SDS011;38650;44.536;18.664;2022-10-16T07:33:42;19.45;;;17.65;;
52764;SDS011;38650;44.536;18.664;2022-10-16T07:36:10;16.40;;;14.73;;
52764;SDS011;38650;44.536;18.664;2022-10-16T07:38:36;14.32;;;13.02;;
52764;SDS011;38650;44.536;18.664;2022-10-16T07:41:04;11.50;;;10.45;;
52764;SDS011;38650;44.536;18.664;2022-10-16T07:43:31;10.50;;;9.00;;
52764;SDS011;38650;44.536;18.664;2022-10-16T07:45:57;8.43;;;7.72;;
52764;SDS011;38650;44.536;18.664;2022-10-16T07:48:24;6.95;;;6.35;;
52764;SDS011;38650;44.536;18.664;2022-10-16T07:50:56;7.30;;;6.60;;
52764;SDS011;38650;44.536;18.664;2022-10-16T07:53:25;7.38;;;6.60;;
52764;SDS011;38650;44.536;18.664;2022-10-16T07:55:52;7.75;;;7.05;;
52764;SDS011;38650;44.536;18.664;2022-10-16T07:58:21;7.13;;;6.53;;
52764;SDS011;38650;44.536;18.664;2022-10-16T08:00:47;7.90;;;7.10;;
52764;SDS011;38650;44.536;18.664;2022-10-16T08:03:13;9.02;;;7.32;;
52764;SDS011;38650;44.536;18.664;2022-10-16T08:05:38;8.40;;;7.60;;
52764;SDS011;38650;44.536;18.664;2022-10-16T08:08:04;10.55;;;8.73;;
52764;SDS011;38650;44.536;18.664;2022-10-16T08:10:30;8.20;;;7.40;;
52764;SDS011;38650;44.536;18.664;2022-10-16T08:12:56;8.05;;;6.78;;
52764;SDS011;38650;44.536;18.664;2022-10-16T08:15:22;6.75;;;6.05;;
52764;SDS011;38650;44.536;18.664;2022-10-16T08:17:58;7.25;;;6.65;;
52764;SDS011;38650;44.536;18.664;2022-10-16T08:20:28;6.53;;;5.93;;
52764;SDS011;38650;44.536;18.664;2022-10-16T08:22:55;6.28;;;5.78;;
52764;SDS011;38650;44.536;18.664;2022-10-16T08:25:22;6.47;;;5.97;;
52764;SDS011;38650;44.536;18.664;2022-10-16T08:27:48;6.40;;;5.90;;
52764;SDS011;38650;44.536;18.664;2022-10-16T08:30:15;5.65;;;5.25;;
52764;SDS011;38650;44.536;18.664;2022-10-16T08:32:41;11.25;;;10.07;;
52764;SDS011;38650;44.536;18.664;2022-10-16T08:35:10;8.75;;;7.88;;
52764;SDS011;38650;44.536;18.664;2022-10-16T08:37:37;9.07;;;8.18;;
52764;SDS011;38650;44.536;18.664;2022-10-16T08:40:04;8.70;;;7.85;;
52764;SDS011;38650;44.536;18.664;2022-10-16T08:50:26;7.57;;;6.88;;
52764;SDS011;38650;44.536;18.664;2022-10-16T08:52:54;7.90;;;7.20;;
52764;SDS011;38650;44.536;18.664;2022-10-16T08:57:52;6.97;;;6.32;;
52764;SDS011;38650;44.536;18.664;2022-10-16T09:00:18;7.85;;;6.05;;
52764;SDS011;38650;44.536;18.664;2022-10-16T09:02:52;6.78;;;5.95;;
52764;SDS011;38650;44.536;18.664;2022-10-16T09:08:42;7.28;;;6.57;;
52764;SDS011;38650;44.536;18.664;2022-10-16T09:11:12;9.23;;;6.65;;
52764;SDS011;38650;44.536;18.664;2022-10-16T09:14:07;6.63;;;5.95;;
52764;SDS011;38650;44.536;18.664;2022-10-16T09:22:51;5.47;;;4.95;;
52764;SDS011;38650;44.536;18.664;2022-10-16T09:25:23;5.32;;;4.68;;
52764;SDS011;38650;44.536;18.664;2022-10-16T09:27:49;5.10;;;4.55;;
52764;SDS011;38650;44.536;18.664;2022-10-16T09:30:19;5.47;;;4.93;;
52764;SDS011;38650;44.536;18.664;2022-10-16T09:32:47;5.95;;;5.03;;
52764;SDS011;38650;44.536;18.664;2022-10-16T09:35:18;7.50;;;5.95;;
52764;SDS011;38650;44.536;18.664;2022-10-16T09:37:47;6.18;;;5.68;;
52764;SDS011;38650;44.536;18.664;2022-10-16T09:40:25;5.60;;;5.15;;
52764;SDS011;38650;44.536;18.664;2022-10-16T09:45:59;6.03;;;5.07;;
52764;SDS011;38650;44.536;18.664;2022-10-16T09:48:37;5.70;;;5.20;;
52764;SDS011;38650;44.536;18.664;2022-10-16T09:53:54;6.93;;;6.32;;
52764;SDS011;38650;44.536;18.664;2022-10-16T09:56:40;6.75;;;6.22;;
52764;SDS011;38650;44.536;18.664;2022-10-16T09:59:13;7.80;;;7.10;;
52764;SDS011;38650;44.536;18.664;2022-10-16T10:04:09;6.47;;;5.00;;
52764;SDS011;38650;44.536;18.664;2022-10-16T10:06:51;5.07;;;4.65;;
52764;SDS011;38650;44.536;18.664;2022-10-16T10:11:53;4.95;;;4.40;;
52764;SDS011;38650;44.536;18.664;2022-10-16T10:17:28;4.47;;;4.07;;
52764;SDS011;38650;44.536;18.664;2022-10-16T10:19:58;4.65;;;4.22;;
52764;SDS011;38650;44.536;18.664;2022-10-16T10:30:20;4.38;;;3.97;;
52764;SDS011;38650;44.536;18.664;2022-10-16T10:35:24;6.90;;;6.20;;
52764;SDS011;38650;44.536;18.664;2022-10-16T10:38:27;5.70;;;5.20;;
52764;SDS011;38650;44.536;18.664;2022-10-16T10:46:45;5.28;;;4.75;;
52764;SDS011;38650;44.536;18.664;2022-10-16T10:52:22;4.80;;;4.50;;
52764;SDS011;38650;44.536;18.664;2022-10-16T10:54:57;5.47;;;4.97;;
52764;SDS011;38650;44.536;18.664;2022-10-16T11:05:45;4.88;;;4.47;;
52764;SDS011;38650;44.536;18.664;2022-10-16T11:08:20;4.80;;;4.30;;
52764;SDS011;38650;44.536;18.664;2022-10-16T11:10:52;4.88;;;4.38;;
52764;SDS011;38650;44.536;18.664;2022-10-16T11:13:20;4.45;;;4.15;;
52764;SDS011;38650;44.536;18.664;2022-10-16T11:15:58;4.80;;;4.40;;
52764;SDS011;38650;44.536;18.664;2022-10-16T11:18:32;4.50;;;4.20;;
52764;SDS011;38650;44.536;18.664;2022-10-16T11:21:12;5.15;;;4.43;;
52764;SDS011;38650;44.536;18.664;2022-10-16T11:26:31;4.78;;;4.30;;
52764;SDS011;38650;44.536;18.664;2022-10-16T11:29:00;5.07;;;4.67;;
52764;SDS011;38650;44.536;18.664;2022-10-16T11:31:36;4.38;;;4.00;;
52764;SDS011;38650;44.536;18.664;2022-10-16T11:36:49;4.18;;;3.88;;
52764;SDS011;38650;44.536;18.664;2022-10-16T11:39:27;5.20;;;4.75;;
52764;SDS011;38650;44.536;18.664;2022-10-16T11:52:57;5.55;;;4.68;;
52764;SDS011;38650;44.536;18.664;2022-10-16T11:55:39;4.70;;;4.30;;
52764;SDS011;38650;44.536;18.664;2022-10-16T11:58:07;4.80;;;4.50;;
52764;SDS011;38650;44.536;18.664;2022-10-16T12:09:09;4.97;;;4.57;;
52764;SDS011;38650;44.536;18.664;2022-10-16T12:11:58;4.63;;;4.32;;
52764;SDS011;38650;44.536;18.664;2022-10-16T12:17:04;5.10;;;4.70;;
52764;SDS011;38650;44.536;18.664;2022-10-16T12:19:59;5.13;;;4.78;;
52764;SDS011;38650;44.536;18.664;2022-10-16T12:22:50;4.90;;;4.57;;
52764;SDS011;38650;44.536;18.664;2022-10-16T12:30:40;3.97;;;3.78;;
52764;SDS011;38650;44.536;18.664;2022-10-16T12:35:54;4.00;;;3.70;;
52764;SDS011;38650;44.536;18.664;2022-10-16T12:38:21;4.32;;;3.92;;
52764;SDS011;38650;44.536;18.664;2022-10-16T12:40:59;3.80;;;3.50;;
52764;SDS011;38650;44.536;18.664;2022-10-16T12:46:05;5.30;;;4.32;;
52764;SDS011;38650;44.536;18.664;2022-10-16T12:48:35;5.10;;;4.70;;
52764;SDS011;38650;44.536;18.664;2022-10-16T12:54:02;5.03;;;4.57;;
52764;SDS011;38650;44.536;18.664;2022-10-16T12:56:41;4.20;;;3.90;;
52764;SDS011;38650;44.536;18.664;2022-10-16T12:59:21;4.22;;;4.00;;
52764;SDS011;38650;44.536;18.664;2022-10-16T13:19:11;4.80;;;4.50;;
52764;SDS011;38650;44.536;18.664;2022-10-16T13:24:52;4.30;;;4.00;;
52764;SDS011;38650;44.536;18.664;2022-10-16T13:27:47;5.32;;;4.93;;
52764;SDS011;38650;44.536;18.664;2022-10-16T13:30:24;7.43;;;6.78;;
52764;SDS011;38650;44.536;18.664;2022-10-16T13:33:13;6.85;;;6.35;;
52764;SDS011;38650;44.536;18.664;2022-10-16T13:35:55;5.60;;;5.20;;
52764;SDS011;38650;44.536;18.664;2022-10-16T13:38:24;5.38;;;4.97;;
52764;SDS011;38650;44.536;18.664;2022-10-16T13:41:04;5.70;;;4.60;;
52764;SDS011;38650;44.536;18.664;2022-10-16T13:43:47;4.78;;;4.38;;
52764;SDS011;38650;44.536;18.664;2022-10-16T13:46:16;4.53;;;4.22;;
52764;SDS011;38650;44.536;18.664;2022-10-16T13:48:43;5.47;;;4.97;;
52764;SDS011;38650;44.536;18.664;2022-10-16T13:53:42;5.20;;;4.70;;
52764;SDS011;38650;44.536;18.664;2022-10-16T13:56:13;6.22;;;5.70;;
52764;SDS011;38650;44.536;18.664;2022-10-16T13:58:41;7.68;;;7.07;;
52764;SDS011;38650;44.536;18.664;2022-10-16T14:01:17;8.40;;;7.70;;
52764;SDS011;38650;44.536;18.664;2022-10-16T14:03:52;17.45;;;16.05;;
52764;SDS011;38650;44.536;18.664;2022-10-16T14:08:54;16.85;;;15.25;;
52764;SDS011;38650;44.536;18.664;2022-10-16T14:11:22;22.85;;;20.55;;
52764;SDS011;38650;44.536;18.664;2022-10-16T14:13:49;27.75;;;24.80;;
52764;SDS011;38650;44.536;18.664;2022-10-16T14:16:29;16.83;;;15.02;;
52764;SDS011;38650;44.536;18.664;2022-10-16T14:21:27;22.70;;;20.30;;
52764;SDS011;38650;44.536;18.664;2022-10-16T14:23:53;38.92;;;32.63;;
52764;SDS011;38650;44.536;18.664;2022-10-16T14:26:21;29.90;;;26.80;;
52764;SDS011;38650;44.536;18.664;2022-10-16T14:29:00;27.98;;;24.98;;
52764;SDS011;38650;44.536;18.664;2022-10-16T14:31:35;21.10;;;19.05;;
52764;SDS011;38650;44.536;18.664;2022-10-16T14:34:02;25.45;;;22.67;;
52764;SDS011;38650;44.536;18.664;2022-10-16T14:36:28;29.65;;;26.63;;
52764;SDS011;38650;44.536;18.664;2022-10-16T14:38:59;27.77;;;24.73;;
52764;SDS011;38650;44.536;18.664;2022-10-16T14:41:31;34.25;;;30.60;;
52764;SDS011;38650;44.536;18.664;2022-10-16T14:44:06;43.53;;;38.75;;
52764;SDS011;38650;44.536;18.664;2022-10-16T14:46:35;40.58;;;36.40;;
52764;SDS011;38650;44.536;18.664;2022-10-16T14:51:34;31.15;;;27.95;;
52764;SDS011;38650;44.536;18.664;2022-10-16T14:54:00;24.65;;;22.17;;
52764;SDS011;38650;44.536;18.664;2022-10-16T14:56:34;21.90;;;19.75;;
52764;SDS011;38650;44.536;18.664;2022-10-16T14:59:24;13.30;;;12.05;;
52764;SDS011;38650;44.536;18.664;2022-10-16T15:01:57;11.02;;;10.13;;
52764;SDS011;38650;44.536;18.664;2022-10-16T15:04:23;12.88;;;11.65;;
52764;SDS011;38650;44.536;18.664;2022-10-16T15:06:48;12.43;;;11.32;;
52764;SDS011;38650;44.536;18.664;2022-10-16T15:09:14;11.48;;;10.52;;
52764;SDS011;38650;44.536;18.664;2022-10-16T15:11:40;14.75;;;13.27;;
52764;SDS011;38650;44.536;18.664;2022-10-16T15:14:09;13.95;;;12.75;;
52764;SDS011;38650;44.536;18.664;2022-10-16T15:16:36;14.05;;;12.82;;
52764;SDS011;38650;44.536;18.664;2022-10-16T15:19:02;21.30;;;19.00;;
52764;SDS011;38650;44.536;18.664;2022-10-16T15:21:29;24.90;;;20.45;;
52764;SDS011;38650;44.536;18.664;2022-10-16T15:23:57;26.90;;;24.08;;
52764;SDS011;38650;44.536;18.664;2022-10-16T15:26:24;28.92;;;26.02;;
52764;SDS011;38650;44.536;18.664;2022-10-16T15:28:51;30.08;;;27.17;;
52764;SDS011;38650;44.536;18.664;2022-10-16T15:31:17;30.30;;;27.50;;
52764;SDS011;38650;44.536;18.664;2022-10-16T15:33:43;39.35;;;35.60;;
52764;SDS011;38650;44.536;18.664;2022-10-16T15:36:09;36.45;;;33.08;;
52764;SDS011;38650;44.536;18.664;2022-10-16T15:38:34;50.47;;;45.85;;
52764;SDS011;38650;44.536;18.664;2022-10-16T15:41:00;61.80;;;55.83;;
52764;SDS011;38650;44.536;18.664;2022-10-16T15:43:26;54.50;;;49.58;;
52764;SDS011;38650;44.536;18.664;2022-10-16T15:48:25;49.83;;;45.33;;
52764;SDS011;38650;44.536;18.664;2022-10-16T15:50:50;46.28;;;42.15;;
52764;SDS011;38650;44.536;18.664;2022-10-16T15:53:16;70.40;;;63.05;;
52764;SDS011;38650;44.536;18.664;2022-10-16T15:55:42;73.72;;;66.18;;
52764;SDS011;38650;44.536;18.664;2022-10-16T15:58:07;97.63;;;87.40;;
52764;SDS011;38650;44.536;18.664;2022-10-16T16:00:33;90.95;;;81.55;;
52764;SDS011;38650;44.536;18.664;2022-10-16T16:02:58;101.07;;;90.57;;
52764;SDS011;38650;44.536;18.664;2022-10-16T16:05:24;85.45;;;76.70;;
52764;SDS011;38650;44.536;18.664;2022-10-16T16:07:50;92.35;;;82.93;;
52764;SDS011;38650;44.536;18.664;2022-10-16T16:10:16;71.57;;;64.57;;
52764;SDS011;38650;44.536;18.664;2022-10-16T16:12:42;59.17;;;53.47;;
52764;SDS011;38650;44.536;18.664;2022-10-16T16:15:08;57.72;;;52.17;;
52764;SDS011;38650;44.536;18.664;2022-10-16T16:17:35;55.88;;;50.47;;
52764;SDS011;38650;44.536;18.664;2022-10-16T16:20:01;62.28;;;55.88;;
52764;SDS011;38650;44.536;18.664;2022-10-16T16:22:28;59.35;;;53.00;;
52764;SDS011;38650;44.536;18.664;2022-10-16T16:24:54;55.75;;;50.10;;
52764;SDS011;38650;44.536;18.664;2022-10-16T16:27:20;59.63;;;53.28;;
52764;SDS011;38650;44.536;18.664;2022-10-16T16:29:46;70.07;;;62.65;;
52764;SDS011;38650;44.536;18.664;2022-10-16T16:32:12;85.78;;;76.40;;
52764;SDS011;38650;44.536;18.664;2022-10-16T16:34:38;104.43;;;93.30;;
52764;SDS011;38650;44.536;18.664;2022-10-16T16:37:04;103.22;;;92.07;;
52764;SDS011;38650;44.536;18.664;2022-10-16T16:39:29;97.40;;;86.97;;
52764;SDS011;38650;44.536;18.664;2022-10-16T16:41:56;102.50;;;89.28;;
52764;SDS011;38650;44.536;18.664;2022-10-16T16:44:23;90.95;;;80.95;;
52764;SDS011;38650;44.536;18.664;2022-10-16T16:46:49;87.57;;;77.53;;
52764;SDS011;38650;44.536;18.664;2022-10-16T16:49:15;83.60;;;73.53;;
52764;SDS011;38650;44.536;18.664;2022-10-16T16:51:41;83.43;;;74.25;;
52764;SDS011;38650;44.536;18.664;2022-10-16T16:54:07;79.35;;;70.82;;
52764;SDS011;38650;44.536;18.664;2022-10-16T16:56:35;73.85;;;65.72;;
52764;SDS011;38650;44.536;18.664;2022-10-16T16:59:00;66.75;;;59.47;;
52764;SDS011;38650;44.536;18.664;2022-10-16T17:01:27;59.78;;;53.20;;
52764;SDS011;38650;44.536;18.664;2022-10-16T17:03:53;57.03;;;50.90;;